createdAt,value
2023-03-02T00:01:08.237Z,5.50
2023-03-02T00:03:42.466Z,5.20
2023-03-02T00:06:10.693Z,5.10
2023-03-02T00:08:46.044Z,5.30
2023-03-02T00:11:15.416Z,5.20
2023-03-02T00:13:44.333Z,5.20
2023-03-02T00:16:12.277Z,5.20
2023-03-02T00:18:48.449Z,5.30
2023-03-02T00:21:16.709Z,5.30
2023-03-02T00:23:48.737Z,5.10
2023-03-02T00:26:22.510Z,5.20
2023-03-02T00:28:59.481Z,5.70
2023-03-02T00:31:27.627Z,5.80
2023-03-02T00:33:55.548Z,5.90
2023-03-02T00:36:24.638Z,6.40
2023-03-02T00:38:54.093Z,6.70
2023-03-02T00:41:28.329Z,6.30
2023-03-02T00:44:17.489Z,5.90
2023-03-02T00:46:51.304Z,5.80
2023-03-02T00:49:22.329Z,5.70
2023-03-02T00:51:53.256Z,5.40
2023-03-02T00:54:25.415Z,5.20
2023-03-02T00:56:55.709Z,5.10
2023-03-02T00:59:32.447Z,4.90
2023-03-02T01:02:09.328Z,4.50
2023-03-02T01:04:40.636Z,4.30
2023-03-02T01:07:11.582Z,4.30
2023-03-02T01:09:44.772Z,4.40
2023-03-02T01:12:15.576Z,4.30
2023-03-02T01:14:46.185Z,4.30
2023-03-02T01:17:14.739Z,4.50
2023-03-02T01:19:42.988Z,4.50
2023-03-02T01:22:10.977Z,4.50
2023-03-02T01:24:43.243Z,4.60
2023-03-02T01:27:14.515Z,5.00
2023-03-02T01:29:47.893Z,5.00
2023-03-02T01:32:17.988Z,4.90
2023-03-02T01:34:45.916Z,5.00
2023-03-02T01:37:16.606Z,5.20
2023-03-02T01:43:41.208Z,4.90
2023-03-02T01:46:15.336Z,5.00
2023-03-02T01:48:52.097Z,5.10
2023-03-02T01:51:23.905Z,5.00
2023-03-02T01:53:57.494Z,5.10
2023-03-02T01:56:35.149Z,5.20
2023-03-02T01:59:10.462Z,5.10
2023-03-02T02:01:42.125Z,4.90
2023-03-02T02:04:10.973Z,5.30
2023-03-02T02:06:45.421Z,5.60
2023-03-02T02:09:25.721Z,5.30
2023-03-02T02:11:58.033Z,5.10
2023-03-02T02:14:29.321Z,5.30
2023-03-02T02:16:57.424Z,5.10
2023-03-02T02:19:41.237Z,5.00
2023-03-02T02:22:13.007Z,4.80
2023-03-02T02:24:45.267Z,4.80
2023-03-02T02:27:15.626Z,4.50
2023-03-02T02:29:46.945Z,4.40
2023-03-02T02:32:18.398Z,4.60
2023-03-02T02:34:50.667Z,4.70
2023-03-02T02:37:23.685Z,4.70
2023-03-02T02:40:09.423Z,4.90
2023-03-02T02:42:42.902Z,4.90
2023-03-02T02:45:25.866Z,5.20
2023-03-02T02:47:54.737Z,5.10
2023-03-02T02:50:33.620Z,5.10
2023-03-02T02:53:07.969Z,5.50
2023-03-02T02:55:43.368Z,5.90
2023-03-02T02:58:26.935Z,5.80
2023-03-02T03:00:58.285Z,5.90
2023-03-02T03:03:32.112Z,6.50
2023-03-02T03:06:05.873Z,6.60
2023-03-02T03:08:55.725Z,6.10
2023-03-02T03:11:26.650Z,5.90
2023-03-02T03:14:12.153Z,5.90
2023-03-02T03:19:31.772Z,5.20
2023-03-02T03:22:02.571Z,5.20
2023-03-02T03:24:32.896Z,5.30
2023-03-02T03:27:01.379Z,5.00
2023-03-02T03:29:40.583Z,4.90
2023-03-02T03:32:18.900Z,5.30
2023-03-02T03:34:49.993Z,5.30
2023-03-02T03:37:21.241Z,5.10
2023-03-02T03:40:01.574Z,5.00
2023-03-02T03:42:35.244Z,5.10
2023-03-02T03:45:04.852Z,5.00
2023-03-02T03:47:32.760Z,4.80
2023-03-02T03:50:14.531Z,5.10
2023-03-02T03:52:48.372Z,5.10
2023-03-02T03:55:19.884Z,4.90
2023-03-02T03:57:47.766Z,4.70
2023-03-02T04:00:23.113Z,4.90
2023-03-02T04:02:56.565Z,4.80
2023-03-02T04:05:31.576Z,4.70
2023-03-02T04:08:01.984Z,4.80
2023-03-02T04:10:30.678Z,4.90
2023-03-02T04:12:58.651Z,4.80
2023-03-02T04:15:30.927Z,4.70
2023-03-02T04:17:58.965Z,4.60
2023-03-02T04:20:34.535Z,4.90
2023-03-02T04:23:02.403Z,5.00
2023-03-02T04:25:31.610Z,4.80
2023-03-02T04:28:02.653Z,4.80
2023-03-02T04:30:33.062Z,4.80
2023-03-02T04:33:00.922Z,4.50
2023-03-02T04:35:30.935Z,4.10
2023-03-02T04:38:07.437Z,4.20
2023-03-02T04:40:35.468Z,4.30
2023-03-02T04:43:03.400Z,4.10
2023-03-02T04:45:32.780Z,4.00
2023-03-02T04:48:03.829Z,4.30
2023-03-02T04:50:32.202Z,4.50
2023-03-02T04:53:06.176Z,4.20
2023-03-02T04:55:45.133Z,4.30
2023-03-02T04:58:13.225Z,4.40
2023-03-02T05:00:47.356Z,4.40
2023-03-02T05:03:17.418Z,4.10
2023-03-02T05:05:57.794Z,4.30
2023-03-02T05:08:25.849Z,4.50
2023-03-02T05:10:53.798Z,4.20
2023-03-02T05:13:21.662Z,4.00
2023-03-02T05:15:51.646Z,3.90
2023-03-02T05:18:22.409Z,3.70
2023-03-02T05:20:50.385Z,3.70
2023-03-02T05:23:25.167Z,3.50
2023-03-02T05:25:55.445Z,3.50
2023-03-02T05:28:30.135Z,3.60
2023-03-02T05:30:59.452Z,3.50
2023-03-02T05:33:27.764Z,3.10
2023-03-02T05:36:07.358Z,3.00
2023-03-02T05:38:38.322Z,2.80
2023-03-02T05:41:10.126Z,2.90
2023-03-02T05:43:38.069Z,3.10
2023-03-02T05:46:10.470Z,3.30
2023-03-02T05:48:38.566Z,3.30
2023-03-02T05:51:17.332Z,3.10
2023-03-02T05:53:57.214Z,3.20
2023-03-02T05:56:34.517Z,3.20
2023-03-02T05:59:02.580Z,3.10
2023-03-02T06:01:32.302Z,3.00
2023-03-02T06:04:00.483Z,2.90
2023-03-02T06:06:34.617Z,2.80
2023-03-02T06:09:05.764Z,3.00
2023-03-02T06:11:34.133Z,3.00
2023-03-02T06:14:05.005Z,2.90
2023-03-02T06:16:34.651Z,3.00
2023-03-02T06:19:05.808Z,3.20
2023-03-02T06:21:37.038Z,3.20
2023-03-02T06:24:05.122Z,3.70
2023-03-02T06:26:35.749Z,4.50
2023-03-02T06:29:03.647Z,4.90
2023-03-02T06:31:31.966Z,4.80
2023-03-02T06:34:01.641Z,4.40
2023-03-02T06:36:30.000Z,4.30
2023-03-02T06:38:57.937Z,4.40
2023-03-02T06:41:25.827Z,4.40
2023-03-02T06:43:53.704Z,4.60
2023-03-02T06:46:23.740Z,4.30
2023-03-02T06:48:51.654Z,4.20
2023-03-02T06:51:20.877Z,4.20
2023-03-02T06:53:54.881Z,4.00
2023-03-02T06:56:28.811Z,3.80
2023-03-02T06:58:56.685Z,3.90
2023-03-02T07:01:27.572Z,3.60
2023-03-02T07:04:00.546Z,3.30
2023-03-02T07:06:29.837Z,3.70
2023-03-02T07:09:02.920Z,3.60
2023-03-02T07:11:34.311Z,3.50
2023-03-02T07:14:02.858Z,3.10
2023-03-02T07:16:31.281Z,3.00
2023-03-02T07:19:11.166Z,3.40
2023-03-02T07:21:43.194Z,3.60
2023-03-02T07:24:11.090Z,3.40
2023-03-02T07:26:38.921Z,3.20
2023-03-02T07:29:06.789Z,3.10
2023-03-02T07:31:40.620Z,3.00
2023-03-02T07:34:15.428Z,2.90
2023-03-02T07:36:47.001Z,2.90
2023-03-02T07:39:17.326Z,2.70
2023-03-02T07:41:51.059Z,2.70
2023-03-02T07:44:28.022Z,2.60
2023-03-02T07:46:59.225Z,2.60
2023-03-02T07:49:27.114Z,2.50
2023-03-02T07:51:56.370Z,2.60
2023-03-02T07:54:31.541Z,2.60
2023-03-02T07:56:59.771Z,2.60
2023-03-02T07:59:30.414Z,2.80
2023-03-02T08:01:58.897Z,2.70
2023-03-02T08:04:44.612Z,2.80
2023-03-02T08:07:17.138Z,3.00
2023-03-02T08:09:54.246Z,3.30
2023-03-02T08:12:22.140Z,3.20
2023-03-02T08:14:50.107Z,3.00
2023-03-02T08:17:18.018Z,3.00
2023-03-02T08:19:51.624Z,3.00
2023-03-02T08:22:20.876Z,3.00
2023-03-02T08:24:48.968Z,3.00
2023-03-02T08:27:17.289Z,3.00
2023-03-02T08:29:51.318Z,3.00
2023-03-02T08:32:19.200Z,3.20
2023-03-02T08:34:51.153Z,3.30
2023-03-02T08:37:25.374Z,3.70
2023-03-02T08:39:57.913Z,3.70
2023-03-02T08:42:26.588Z,3.50
2023-03-02T08:45:03.835Z,3.60
2023-03-02T08:47:32.446Z,3.80
2023-03-02T08:50:07.027Z,3.90
2023-03-02T08:52:48.874Z,4.20
2023-03-02T08:55:19.022Z,4.30
2023-03-02T08:57:47.631Z,4.20
2023-03-02T09:00:16.907Z,4.10
2023-03-02T09:02:44.689Z,4.10
2023-03-02T09:05:12.513Z,4.20
2023-03-02T09:07:47.832Z,4.10
2023-03-02T09:10:22.932Z,4.20
2023-03-02T09:12:53.916Z,4.40
2023-03-02T09:15:31.379Z,4.50
2023-03-02T09:18:02.165Z,4.70
2023-03-02T09:20:30.062Z,4.50
2023-03-02T09:22:59.351Z,4.60
2023-03-02T09:25:27.260Z,4.60
2023-03-02T09:28:07.132Z,4.60
2023-03-02T09:30:37.294Z,4.60
2023-03-02T09:33:11.073Z,4.60
2023-03-02T09:35:42.825Z,4.70
2023-03-02T09:38:16.061Z,4.70
2023-03-02T09:41:18.341Z,4.80
2023-03-02T09:44:16.807Z,4.90
2023-03-02T09:46:50.724Z,5.00
2023-03-02T09:49:30.351Z,5.00
2023-03-02T09:52:11.610Z,5.10
2023-03-02T09:54:41.822Z,5.20
2023-03-02T09:57:26.269Z,5.30
2023-03-02T10:00:09.492Z,5.30
2023-03-02T10:02:49.044Z,5.30
2023-03-02T10:05:24.817Z,5.30
2023-03-02T10:07:53.051Z,5.40
2023-03-02T10:10:29.055Z,5.40
2023-03-02T10:13:20.065Z,5.50
2023-03-02T10:16:04.125Z,5.50
2023-03-02T10:18:39.324Z,5.50
2023-03-02T10:21:15.389Z,5.50
2023-03-02T10:23:53.078Z,5.60
2023-03-02T10:26:37.486Z,5.70
2023-03-02T10:29:28.543Z,5.90
2023-03-02T10:32:21.721Z,5.90
2023-03-02T10:34:53.897Z,6.00
2023-03-02T10:37:27.942Z,6.10
2023-03-02T10:39:58.327Z,6.20
2023-03-02T10:42:32.130Z,6.20
2023-03-02T10:45:10.224Z,6.30
2023-03-02T10:47:40.267Z,6.30
2023-03-02T10:50:23.824Z,6.40
2023-03-02T10:53:00.184Z,6.50
2023-03-02T10:55:29.791Z,6.60
2023-03-02T10:58:07.848Z,6.60
2023-03-02T11:00:36.789Z,6.70
2023-03-02T11:03:20.599Z,6.70
2023-03-02T11:05:49.116Z,6.80
2023-03-02T11:08:19.365Z,6.90
2023-03-02T11:10:56.740Z,6.90
2023-03-02T11:13:31.126Z,7.00
2023-03-02T11:16:00.656Z,6.90
2023-03-02T11:18:54.505Z,7.00
2023-03-02T11:21:30.972Z,7.00
2023-03-02T11:24:07.908Z,7.10
2023-03-02T11:26:40.117Z,7.10
2023-03-02T11:29:22.821Z,7.20
2023-03-02T11:31:55.281Z,7.30
2023-03-02T11:34:32.151Z,7.40
2023-03-02T11:37:20.794Z,7.50
2023-03-02T11:40:06.082Z,7.50
2023-03-02T11:42:43.890Z,7.50
2023-03-02T11:45:31.171Z,7.60
2023-03-02T11:48:04.192Z,7.60
2023-03-02T11:50:35.627Z,7.60
2023-03-02T11:53:17.345Z,7.70
2023-03-02T11:55:51.625Z,7.70
2023-03-02T11:58:23.501Z,7.80
2023-03-02T12:00:54.495Z,8.00
2023-03-02T12:03:35.978Z,8.00
2023-03-02T12:06:07.187Z,8.10
2023-03-02T12:08:42.170Z,8.20
2023-03-02T12:11:34.058Z,8.20
2023-03-02T12:14:06.923Z,8.30
2023-03-02T12:16:40.806Z,8.40
2023-03-02T12:19:33.269Z,8.50
2023-03-02T12:22:03.284Z,8.60
2023-03-02T12:24:33.048Z,8.70
2023-03-02T12:27:03.807Z,8.70
2023-03-02T12:29:41.009Z,8.60
2023-03-02T12:32:23.724Z,8.60
2023-03-02T12:35:00.818Z,8.70
2023-03-02T12:37:33.892Z,8.80
2023-03-02T12:40:24.976Z,8.90
2023-03-02T12:43:13.478Z,8.90
2023-03-02T12:45:59.692Z,8.90
2023-03-02T12:48:31.878Z,8.90
2023-03-02T12:51:02.595Z,8.90
2023-03-02T12:53:31.188Z,8.90
2023-03-02T12:55:59.233Z,9.00
2023-03-02T12:58:30.026Z,8.90
2023-03-02T13:01:05.771Z,9.00
2023-03-02T13:03:35.029Z,9.10
2023-03-02T13:06:04.295Z,9.00
2023-03-02T13:08:33.705Z,9.10
2023-03-02T13:11:03.174Z,9.10
2023-03-02T13:13:46.048Z,9.10
2023-03-02T13:16:22.925Z,9.20
2023-03-02T13:18:56.899Z,9.20
2023-03-02T13:21:34.644Z,9.10
2023-03-02T13:24:02.610Z,9.10
2023-03-02T13:26:35.776Z,9.10
2023-03-02T13:29:08.578Z,9.20
2023-03-02T13:31:39.432Z,9.30
2023-03-02T13:34:33.060Z,9.10
2023-03-02T13:37:21.049Z,9.20
2023-03-02T13:40:02.246Z,9.20
2023-03-02T13:42:40.315Z,9.20
2023-03-02T13:45:24.374Z,9.30
2023-03-02T13:47:52.640Z,9.20
2023-03-02T13:50:28.081Z,9.00
2023-03-02T13:52:57.807Z,9.10
2023-03-02T13:55:26.495Z,9.00
2023-03-02T13:57:55.668Z,9.00
2023-03-02T14:00:28.388Z,9.00
2023-03-02T14:03:03.361Z,9.00
2023-03-02T14:05:34.953Z,9.10
2023-03-02T14:08:06.966Z,9.10
2023-03-02T14:10:37.582Z,9.10
2023-03-02T14:13:09.387Z,9.10
2023-03-02T14:15:48.051Z,9.10
2023-03-02T14:18:27.637Z,9.10
2023-03-02T14:20:57.421Z,9.30
2023-03-02T14:23:26.314Z,9.10
2023-03-02T14:25:56.278Z,9.10
2023-03-02T14:28:28.817Z,9.20
2023-03-02T14:30:58.262Z,9.20
2023-03-02T14:33:31.728Z,9.10
2023-03-02T14:36:01.136Z,9.10
2023-03-02T14:38:29.227Z,9.10
2023-03-02T14:40:57.862Z,9.00
2023-03-02T14:43:26.206Z,9.10
2023-03-02T14:45:54.779Z,9.10
2023-03-02T14:48:22.862Z,9.10
2023-03-02T14:50:53.526Z,9.10
2023-03-02T14:53:28.809Z,9.10
2023-03-02T14:56:00.109Z,9.10
2023-03-02T14:58:33.718Z,9.20
2023-03-02T15:01:02.113Z,9.30
2023-03-02T15:03:30.050Z,9.20
2023-03-02T15:06:01.527Z,9.10
2023-03-02T15:08:34.364Z,9.00
2023-03-02T15:11:05.352Z,9.00
2023-03-02T15:13:35.980Z,9.00
2023-03-02T15:16:03.884Z,8.90
2023-03-02T15:18:37.731Z,8.90
2023-03-02T15:21:08.570Z,8.90
2023-03-02T15:23:37.830Z,8.90
2023-03-02T15:26:05.875Z,9.00
2023-03-02T15:28:41.108Z,9.00
2023-03-02T15:31:09.958Z,9.00
2023-03-02T15:33:41.408Z,9.00
2023-03-02T15:36:09.598Z,9.10
2023-03-02T15:38:50.557Z,9.00
2023-03-02T15:41:19.568Z,9.10
2023-03-02T15:43:51.042Z,9.10
2023-03-02T15:46:19.030Z,9.10
2023-03-02T15:48:46.950Z,9.10
2023-03-02T15:51:21.156Z,9.00
2023-03-02T15:53:50.364Z,8.90
2023-03-02T15:56:18.464Z,9.00
2023-03-02T15:58:50.675Z,9.10
2023-03-02T16:01:18.583Z,9.10
2023-03-02T16:03:46.842Z,8.90
2023-03-02T16:06:15.650Z,8.90
2023-03-02T16:08:45.973Z,9.00
2023-03-02T16:11:18.677Z,9.20
2023-03-02T16:13:49.154Z,9.10
2023-03-02T16:16:20.350Z,9.10
2023-03-02T16:18:51.862Z,9.00
2023-03-02T16:21:20.167Z,9.10
2023-03-02T16:23:48.183Z,9.20
2023-03-02T16:26:19.403Z,9.10
2023-03-02T16:28:47.701Z,9.00
2023-03-02T16:31:18.465Z,8.80
2023-03-02T16:33:47.455Z,8.80
2023-03-02T16:36:15.992Z,9.00
2023-03-02T16:38:43.870Z,9.10
2023-03-02T16:41:23.586Z,9.10
2023-03-02T16:43:54.259Z,9.00
2023-03-02T16:46:23.116Z,8.90
2023-03-02T16:48:51.404Z,8.90
2023-03-02T16:51:20.687Z,8.90
2023-03-02T16:53:51.267Z,8.90
2023-03-02T16:56:19.140Z,8.70
2023-03-02T16:58:48.462Z,8.70
2023-03-02T17:01:20.270Z,8.80
2023-03-02T17:03:50.621Z,8.80
2023-03-02T17:06:21.419Z,8.90
2023-03-02T17:08:50.591Z,8.80
2023-03-02T17:11:18.587Z,8.80
2023-03-02T17:13:47.921Z,8.70
2023-03-02T17:16:16.736Z,8.70
2023-03-02T17:18:47.739Z,8.60
2023-03-02T17:21:30.665Z,8.80
2023-03-02T17:23:58.576Z,8.60
2023-03-02T17:26:26.374Z,8.60
2023-03-02T17:28:58.086Z,8.50
2023-03-02T17:31:28.193Z,8.50
2023-03-02T17:34:01.305Z,8.40
2023-03-02T17:36:29.222Z,8.40
2023-03-02T17:39:00.183Z,8.20
2023-03-02T17:41:47.946Z,8.00
2023-03-02T17:44:29.476Z,7.80
2023-03-02T17:46:57.360Z,7.60
2023-03-02T17:49:25.271Z,7.60
2023-03-02T17:51:55.572Z,7.50
2023-03-02T17:54:29.582Z,7.40
2023-03-02T17:57:04.672Z,7.20
2023-03-02T17:59:39.041Z,7.20
2023-03-02T18:02:06.991Z,7.20
2023-03-02T18:04:37.642Z,7.20
2023-03-02T18:07:08.592Z,7.30
2023-03-02T18:09:36.465Z,7.50
2023-03-02T18:12:07.524Z,7.50
2023-03-02T18:14:42.333Z,7.50
2023-03-02T18:17:22.654Z,7.50
2023-03-02T18:20:09.858Z,7.70
2023-03-02T18:22:40.642Z,7.60
2023-03-02T18:25:09.147Z,7.60
2023-03-02T18:27:39.803Z,7.50
2023-03-02T18:30:17.846Z,7.60
2023-03-02T18:32:45.718Z,7.60
2023-03-02T18:35:20.109Z,7.80
2023-03-02T18:37:56.443Z,7.80
2023-03-02T18:40:24.379Z,7.40
2023-03-02T18:42:52.222Z,7.10
2023-03-02T18:45:25.373Z,7.10
2023-03-02T18:47:56.361Z,6.90
2023-03-02T18:50:32.144Z,7.10
2023-03-02T18:53:02.817Z,7.00
2023-03-02T18:55:33.684Z,6.90
2023-03-02T18:58:01.528Z,6.80
2023-03-02T19:00:31.074Z,6.90
2023-03-02T19:03:08.078Z,7.10
2023-03-02T19:05:35.972Z,6.90
2023-03-02T19:08:13.347Z,6.60
2023-03-02T19:10:42.416Z,6.50
2023-03-02T19:13:23.606Z,6.40
2023-03-02T19:15:54.874Z,6.20
2023-03-02T19:18:26.770Z,6.10
2023-03-02T19:20:55.601Z,6.00
2023-03-02T19:23:23.508Z,5.90
2023-03-02T19:25:51.817Z,5.80
2023-03-02T19:28:22.402Z,5.90
2023-03-02T19:30:57.192Z,5.80
2023-03-02T19:33:40.977Z,5.70
2023-03-02T19:36:27.360Z,5.50
2023-03-02T19:39:01.040Z,5.30
2023-03-02T19:41:32.133Z,5.20
2023-03-02T19:44:02.974Z,5.20
2023-03-02T19:46:38.237Z,5.10
2023-03-02T19:49:11.912Z,5.10
2023-03-02T19:51:40.072Z,5.10
2023-03-02T19:54:07.955Z,5.20
2023-03-02T19:56:40.202Z,5.30
2023-03-02T19:59:08.301Z,5.40
2023-03-02T20:01:36.273Z,5.70
2023-03-02T20:04:08.342Z,6.00
2023-03-02T20:06:37.073Z,6.00
2023-03-02T20:09:09.558Z,6.00
2023-03-02T20:11:38.229Z,5.90
2023-03-02T20:14:06.135Z,5.70
2023-03-02T20:16:36.408Z,5.70
2023-03-02T20:19:08.666Z,5.70
2023-03-02T20:21:37.865Z,5.70
2023-03-02T20:24:08.839Z,5.60
2023-03-02T20:26:36.697Z,5.70
2023-03-02T20:29:05.581Z,5.50
2023-03-02T20:31:39.481Z,5.30
2023-03-02T20:34:20.434Z,5.20
2023-03-02T20:36:48.571Z,5.10
2023-03-02T20:39:23.340Z,5.00
2023-03-02T20:41:58.261Z,5.00
2023-03-02T20:44:30.908Z,5.00
2023-03-02T20:47:16.160Z,5.10
2023-03-02T20:49:48.534Z,5.20
2023-03-02T20:52:19.189Z,4.90
2023-03-02T20:54:47.002Z,4.90
2023-03-02T20:57:20.464Z,4.90
2023-03-02T20:59:49.572Z,4.90
2023-03-02T21:02:26.384Z,4.80
2023-03-02T21:05:10.600Z,4.80
2023-03-02T21:07:40.768Z,5.00
2023-03-02T21:10:14.221Z,5.50
2023-03-02T21:12:43.064Z,5.80
2023-03-02T21:15:16.696Z,5.60
2023-03-02T21:17:47.619Z,5.40
2023-03-02T21:20:18.373Z,5.20
2023-03-02T21:22:47.106Z,5.20
2023-03-02T21:25:24.306Z,5.10
2023-03-02T21:27:58.310Z,5.10
2023-03-02T21:30:29.265Z,5.10
2023-03-02T21:32:57.491Z,4.80
2023-03-02T21:35:46.253Z,4.70
2023-03-02T21:38:31.423Z,4.50
2023-03-02T21:40:59.281Z,4.20
2023-03-02T21:43:29.884Z,3.90
2023-03-02T21:45:58.448Z,3.90
2023-03-02T21:48:32.493Z,4.00
2023-03-02T21:51:04.147Z,3.90
2023-03-02T21:53:37.790Z,3.80
2023-03-02T21:56:08.924Z,3.80
2023-03-02T21:58:44.567Z,3.80
2023-03-02T22:01:14.894Z,3.50
2023-03-02T22:03:43.309Z,3.50
2023-03-02T22:06:17.355Z,3.50
2023-03-02T22:08:48.319Z,3.50
2023-03-02T22:11:22.596Z,3.40
2023-03-02T22:13:59.360Z,3.50
2023-03-02T22:16:35.784Z,3.50
2023-03-02T22:19:27.738Z,3.90
2023-03-02T22:21:59.816Z,4.10
2023-03-02T22:24:31.707Z,4.00
2023-03-02T22:27:02.542Z,4.00
2023-03-02T22:29:33.470Z,4.20
2023-03-02T22:32:16.313Z,4.30
2023-03-02T22:34:48.452Z,4.20
2023-03-02T22:37:25.562Z,4.10
2023-03-02T22:39:56.444Z,4.10
2023-03-02T22:42:32.990Z,4.00
2023-03-02T22:45:14.667Z,3.80
2023-03-02T22:47:42.687Z,3.70
2023-03-02T22:50:28.516Z,3.50
2023-03-02T22:53:22.972Z,3.60
2023-03-02T22:55:56.939Z,3.70
2023-03-02T22:58:45.748Z,3.50
2023-03-02T23:01:24.630Z,3.60
2023-03-02T23:04:20.236Z,3.40
2023-03-02T23:06:50.515Z,3.30
2023-03-02T23:09:32.071Z,3.30
2023-03-02T23:12:06.720Z,3.40
2023-03-02T23:14:49.196Z,3.40
2023-03-02T23:17:21.046Z,3.30
2023-03-02T23:19:49.308Z,3.20
2023-03-02T23:22:19.341Z,3.20
2023-03-02T23:24:48.750Z,3.30
2023-03-02T23:27:28.734Z,3.40
2023-03-02T23:30:02.796Z,3.60
2023-03-02T23:32:36.113Z,3.60
2023-03-02T23:35:10.620Z,3.40
2023-03-02T23:37:43.497Z,3.50
2023-03-02T23:40:13.809Z,3.60
2023-03-02T23:42:44.117Z,3.50
2023-03-02T23:45:12.250Z,3.40
2023-03-02T23:47:42.456Z,3.10
2023-03-02T23:50:14.502Z,3.20
2023-03-02T23:52:45.166Z,3.20
2023-03-02T23:55:14.609Z,3.10
2023-03-02T23:57:47.620Z,3.10
